Time;durP1;ratioP1;P1;durP2;ratioP2;P2;SDS_P1;SDS_P2;PMS_P1;PMS_P2;Temp;Humidity;BMP_temperature;BMP_pressure;BME280_temperature;BME280_humidity;BME280_pressure;Samples;Min_cycle;Max_cycle;Signal;HPM_P1;HPM_P2
2023/05/02 00:00:44;;;;;;;1.27;0.80;;;;;;;13.51;100.00;101921.53;10393013;28;20046;-80
2023/05/02 00:05:45;;;;;;;4.28;1.08;;;;;;;13.26;100.00;101927.59;10367961;28;20049;-79
2023/05/02 00:10:47;;;;;;;2.88;1.77;;;;;;;13.70;100.00;101932.41;10372517;28;20128;-80
2023/05/02 00:15:49;;;;;;;1.15;0.77;;;;;;;13.48;100.00;101926.59;10398107;28;20412;-80
2023/05/02 00:20:50;;;;;;;3.85;1.08;;;;;;;13.55;100.00;101930.25;10401055;28;20542;-80
2023/05/02 00:25:52;;;;;;;0.63;0.35;;;;;;;14.06;100.00;101922.25;10408739;28;20136;-80
2023/05/02 00:30:53;;;;;;;1.45;0.88;;;;;;;13.58;100.00;101931.22;10386021;28;20077;-79
2023/05/02 00:35:55;;;;;;;1.10;0.73;;;;;;;13.54;100.00;101941.44;10407728;28;20060;-79
2023/05/02 00:40:56;;;;;;;0.22;0.22;;;;;;;13.18;100.00;101948.06;10389602;28;20065;-79
2023/05/02 00:45:58;;;;;;;3.10;0.90;;;;;;;13.58;100.00;101939.00;10383833;28;20040;-79
2023/05/02 00:51:03;;;;;;;1.35;1.08;;;;;;;13.67;100.00;101947.84;10362945;28;20567;-80
2023/05/02 00:56:06;;;;;;;0.77;0.68;;;;;;;13.96;100.00;101941.81;10402084;28;20487;-80
2023/05/02 01:01:42;;;;;;;3.03;1.13;;;;;;;13.64;100.00;101948.63;10375774;28;20065;-80
2023/05/02 01:06:58;;;;;;;1.08;0.95;;;;;;;13.67;100.00;101947.84;10383722;28;20068;-82
2023/05/02 01:12:24;;;;;;;2.00;0.55;;;;;;;13.63;100.00;101963.31;10400397;28;20829;-80
2023/05/02 01:17:29;;;;;;;0.80;0.80;;;;;;;13.52;100.00;101954.31;10393294;28;20084;-79
2023/05/02 01:22:32;;;;;;;0.75;0.45;;;;;;;13.59;100.00;101943.31;10368717;28;20108;-80
2023/05/02 01:28:05;;;;;;;1.33;0.47;;;;;;;13.76;100.00;101949.03;10363933;28;20041;-80
2023/05/02 01:33:10;;;;;;;0.80;0.45;;;;;;;13.96;100.00;101949.56;10381759;28;20568;-80
2023/05/02 01:38:15;;;;;;;3.58;0.57;;;;;;;13.98;100.00;101961.69;10369587;28;20072;-80
2023/05/02 01:43:19;;;;;;;0.77;0.65;;;;;;;13.85;100.00;101958.75;10370361;28;20109;-80
2023/05/02 01:48:21;;;;;;;3.92;1.00;;;;;;;13.37;100.00;101953.81;10383215;28;20254;-80
2023/05/02 01:53:29;;;;;;;1.00;0.47;;;;;;;13.88;100.00;101958.88;10375253;28;20046;-81
2023/05/02 01:58:33;;;;;;;0.60;0.57;;;;;;;13.88;100.00;101969.22;10375159;28;20049;-80
2023/05/02 02:03:34;;;;;;;2.63;1.17;;;;;;;13.70;100.00;101963.50;10380444;28;20484;-80
2023/05/02 02:08:36;;;;;;;1.65;0.75;;;;;;;13.61;100.00;101970.13;10382365;28;20045;-80
2023/05/02 02:13:46;;;;;;;0.95;0.65;;;;;;;13.85;100.00;101965.66;10370638;28;20045;-79
2023/05/02 02:18:48;;;;;;;1.02;0.40;;;;;;;13.52;100.00;101969.84;10385289;28;20696;-79
2023/05/02 02:23:52;;;;;;;0.98;0.73;;;;;;;13.51;100.00;101975.88;10371473;28;20050;-80
2023/05/02 02:28:55;;;;;;;1.20;1.10;;;;;;;13.55;100.00;101984.63;10382932;28;20054;-79
2023/05/02 02:33:57;;;;;;;0.30;0.30;;;;;;;13.24;100.00;101989.66;10365591;28;20052;-79
2023/05/02 02:39:11;;;;;;;0.80;0.65;;;;;;;13.02;100.00;101988.97;10382521;28;20493;-80
2023/05/02 02:44:27;;;;;;;1.35;0.75;;;;;;;13.21;100.00;101999.94;10387242;28;20077;-79
2023/05/02 02:49:59;;;;;;;0.35;0.30;;;;;;;13.12;100.00;102004.78;10360167;28;20061;-79
2023/05/02 02:55:21;;;;;;;20.98;0.75;;;;;;;12.61;100.00;102005.66;10374793;28;20042;-82
2023/05/02 03:00:26;;;;;;;0.00;0.00;;;;;;;12.29;100.00;102032.09;10380498;28;20140;-82
2023/05/02 03:05:29;;;;;;;0.22;0.22;;;;;;;12.35;100.00;102034.91;10388784;28;20095;-79
2023/05/02 03:10:32;;;;;;;0.03;0.03;;;;;;;12.37;100.00;102053.94;10396038;28;20474;-78
2023/05/02 03:16:22;;;;;;;0.20;0.20;;;;;;;12.13;100.00;102063.34;10393338;28;20053;-79
2023/05/02 03:21:23;;;;;;;6.28;0.98;;;;;;;12.59;100.00;102070.22;10381928;28;20041;-82
2023/05/02 03:26:26;;;;;;;0.10;0.00;;;;;;;12.21;100.00;102080.88;10415463;28;20061;-79
2023/05/02 03:31:28;;;;;;;1.10;0.55;;;;;;;12.25;100.00;102083.59;10382999;28;20087;-79
2023/05/02 03:36:30;;;;;;;0.17;0.13;;;;;;;12.70;100.00;102089.59;10413138;28;20042;-79
2023/05/02 03:41:32;;;;;;;0.00;0.00;;;;;;;12.48;100.00;102087.94;10377345;28;20137;-79
2023/05/02 03:46:39;;;;;;;0.20;0.20;;;;;;;12.34;100.00;102096.88;10390237;28;20061;-79
2023/05/02 03:51:44;;;;;;;0.32;0.25;;;;;;;12.70;100.00;102092.16;10350829;28;20042;-78
2023/05/02 03:56:48;;;;;;;0.05;0.05;;;;;;;12.37;100.00;102103.03;10364980;28;20038;-79
2023/05/02 04:01:56;;;;;;;0.00;0.00;;;;;;;12.81;100.00;102107.22;10380130;28;20136;-81
2023/05/02 04:07:08;;;;;;;0.38;0.38;;;;;;;12.66;100.00;102111.00;10384840;28;20057;-81
2023/05/02 04:12:10;;;;;;;0.20;0.10;;;;;;;12.74;100.00;102120.75;10393639;28;20037;-81
2023/05/02 04:17:16;;;;;;;0.75;0.40;;;;;;;12.56;100.00;102132.16;10354491;28;20049;-80
2023/05/02 04:22:22;;;;;;;0.00;0.00;;;;;;;12.70;100.00;102132.69;10363896;28;20099;-80
2023/05/02 04:27:28;;;;;;;3.20;1.05;;;;;;;12.46;100.00;102146.44;10361158;28;20429;-80
2023/05/02 04:32:31;;;;;;;0.10;0.10;;;;;;;12.66;100.00;102144.59;10379172;28;20148;-80
2023/05/02 04:37:34;;;;;;;0.00;0.00;;;;;;;12.44;100.00;102152.38;10350423;28;20048;-82
2023/05/02 04:42:37;;;;;;;0.80;0.55;;;;;;;12.31;100.00;102169.09;10372562;28;20063;-81
2023/05/02 04:47:47;;;;;;;;;;;;;;;11.78;100.00;102186.75;10351524;28;20053;-80
2023/05/02 04:52:49;;;;;;;0.10;0.10;;;;;;;11.58;100.00;102202.28;10370493;28;19921;-81
2023/05/02 04:57:50;;;;;;;0.00;0.00;;;;;;;11.26;100.00;102215.56;10401454;28;20050;-81
2023/05/02 05:02:52;;;;;;;0.70;0.47;;;;;;;11.27;100.00;102211.31;10383888;28;20065;-81
2023/05/02 05:07:54;;;;;;;0.10;0.10;;;;;;;11.16;100.00;102228.88;10390942;28;20112;-81
2023/05/02 05:12:58;;;;;;;0.00;0.00;;;;;;;11.22;100.00;102238.56;10384287;28;20049;-80
2023/05/02 05:18:01;;;;;;;0.00;0.00;;;;;;;11.13;100.00;102244.22;10382999;28;20547;-81
2023/05/02 05:23:03;;;;;;;0.20;0.20;;;;;;;11.36;100.00;102255.53;10361114;28;20060;-81
2023/05/02 05:28:05;;;;;;;0.10;0.10;;;;;;;10.89;100.00;102255.16;10387200;28;20042;-81
2023/05/02 05:33:09;;;;;;;0.40;0.40;;;;;;;10.96;100.00;102261.50;10400623;28;20049;-81
2023/05/02 05:38:11;;;;;;;0.00;0.00;;;;;;;11.13;100.00;102272.59;10361819;28;20426;-80
2023/05/02 05:43:16;;;;;;;0.08;0.05;;;;;;;10.88;100.00;102288.63;10366832;28;20176;-80
2023/05/02 05:48:18;;;;;;;0.68;0.30;;;;;;;10.73;100.00;102294.81;10362842;28;20042;-79
2023/05/02 05:53:20;;;;;;;0.00;0.00;;;;;;;11.01;100.00;102306.41;10365335;28;20049;-80
2023/05/02 05:58:23;;;;;;;0.10;0.10;;;;;;;10.95;100.00;102316.47;10373539;28;22900;-80
2023/05/02 06:03:26;;;;;;;0.00;0.00;;;;;;;10.81;100.00;102327.81;10382561;28;20080;-80
2023/05/02 06:08:28;;;;;;;1.30;1.08;;;;;;;10.56;100.00;102331.78;10377079;28;20038;-80
2023/05/02 06:13:30;;;;;;;3.42;0.43;;;;;;;11.15;100.00;102330.28;10370615;28;20532;-79
2023/05/02 06:18:32;;;;;;;1.10;0.28;;;;;;;10.84;100.00;102341.72;10386175;28;20479;-81
2023/05/02 06:23:33;;;;;;;0.10;0.10;;;;;;;10.77;100.00;102356.00;10387229;28;20073;-81
2023/05/02 06:28:35;;;;;;;0.60;0.60;;;;;;;10.82;100.00;102370.84;10357956;28;20050;-81
2023/05/02 06:33:36;;;;;;;7.10;0.85;;;;;;;10.85;100.00;102376.13;10369842;28;20117;-81
2023/05/02 06:38:38;;;;;;;4.82;0.95;;;;;;;10.77;100.00;102386.06;10372134;28;20458;-80
2023/05/02 06:43:40;;;;;;;0.20;0.20;;;;;;;10.63;100.00;102400.84;10370665;28;20408;-81
2023/05/02 06:48:41;;;;;;;0.70;0.20;;;;;;;11.17;100.00;102407.75;10374689;28;20098;-81
2023/05/02 06:53:43;;;;;;;0.05;0.05;;;;;;;10.81;100.00;102421.50;10360217;28;20076;-81
2023/05/02 06:58:44;;;;;;;0.00;0.00;;;;;;;11.17;100.00;102423.22;10355568;28;20056;-79
2023/05/02 07:03:46;;;;;;;5.47;0.47;;;;;;;11.00;100.00;102431.03;10353729;28;20050;-80
2023/05/02 07:08:47;;;;;;;2.08;0.60;;;;;;;11.14;100.00;102433.38;10373603;28;20056;-80
2023/05/02 07:13:49;;;;;;;0.10;0.08;;;;;;;11.33;100.00;102441.19;10354452;28;20049;-81
2023/05/02 07:18:51;;;;;;;0.22;0.10;;;;;;;11.27;100.00;102452.09;10380443;28;20046;-80
2023/05/02 07:23:54;;;;;;;0.10;0.10;;;;;;;11.58;100.00;102450.97;10391785;28;20469;-79
2023/05/02 07:28:55;;;;;;;1.23;0.55;;;;;;;11.09;100.00;102459.84;10362901;28;20462;-79
2023/05/02 07:33:57;;;;;;;1.15;0.50;;;;;;;11.49;100.00;102475.47;10380518;28;20110;-80
2023/05/02 07:38:58;;;;;;;0.10;0.10;;;;;;;11.47;100.00;102479.69;10362308;28;20475;-80
2023/05/02 07:44:00;;;;;;;0.05;0.05;;;;;;;11.64;100.00;102486.53;10361907;28;20060;-80
2023/05/02 07:49:01;;;;;;;0.00;0.00;;;;;;;11.18;100.00;102479.16;10381139;28;20046;-79
2023/05/02 07:54:14;;;;;;;0.00;0.00;;;;;;;12.17;100.00;102478.63;10363517;28;20327;-80
2023/05/02 07:59:16;;;;;;;3.30;0.43;;;;;;;12.33;100.00;102488.78;10379388;28;20099;-80
2023/05/02 08:04:17;;;;;;;0.68;0.22;;;;;;;11.47;100.00;102497.75;10363195;28;20065;-80
2023/05/02 08:09:19;;;;;;;0.20;0.17;;;;;;;11.45;100.00;102496.78;10363035;28;20544;-80
2023/05/02 08:14:21;;;;;;;0.00;0.00;;;;;;;11.57;100.00;102506.00;10378377;28;20052;-80
2023/05/02 08:19:22;;;;;;;0.55;0.45;;;;;;;11.73;100.00;102514.47;10379412;28;20483;-80
2023/05/02 08:24:24;;;;;;;0.00;0.00;;;;;;;12.11;100.00;102515.38;10360581;28;20049;-80
2023/05/02 08:29:25;;;;;;;0.35;0.35;;;;;;;12.08;100.00;102523.00;10366159;28;20479;-80
2023/05/02 08:34:27;;;;;;;0.00;0.00;;;;;;;12.55;100.00;102523.34;10378498;28;20045;-80
2023/05/02 08:39:31;;;;;;;0.15;0.15;;;;;;;12.84;100.00;102523.75;10375928;28;20125;-80
2023/05/02 08:44:33;;;;;;;0.50;0.28;;;;;;;12.20;100.00;102541.66;10376936;28;20049;-80
2023/05/02 08:49:36;;;;;;;0.35;0.10;;;;;;;12.21;100.00;102547.69;10376516;28;20037;-80
2023/05/02 08:54:37;;;;;;;12.18;0.45;;;;;;;12.91;100.00;102542.97;10369793;28;20617;-80
2023/05/02 08:59:41;;;;;;;0.00;0.00;;;;;;;11.87;100.00;102556.44;10360690;28;20048;-81
2023/05/02 09:04:51;;;;;;;0.10;0.10;;;;;;;11.95;100.00;102560.25;10361978;28;20054;-80
2023/05/02 09:09:53;;;;;;;0.00;0.00;;;;;;;11.95;100.00;102564.53;10359123;28;20042;-80
2023/05/02 09:15:15;;;;;;;0.10;0.10;;;;;;;12.90;97.67;102557.63;10365920;28;20129;-82
2023/05/02 09:20:21;;;;;;;1.65;0.95;;;;;;;13.20;99.32;102569.19;10375789;28;20037;-80
2023/05/02 09:25:22;;;;;;;0.00;0.00;;;;;;;12.46;100.00;102577.25;10375712;28;20045;-81
2023/05/02 09:30:25;;;;;;;0.47;0.08;;;;;;;12.47;99.91;102576.44;10374345;28;20070;-81
2023/05/02 09:35:27;;;;;;;0.00;0.00;;;;;;;12.69;100.00;102584.31;10375254;28;20045;-81
2023/05/02 09:40:29;;;;;;;0.00;0.00;;;;;;;12.73;97.14;102595.69;10377440;28;20528;-80
2023/05/02 09:45:31;;;;;;;0.00;0.00;;;;;;;12.73;100.00;102599.97;10376194;28;20475;-80
2023/05/02 09:50:36;;;;;;;3.70;0.13;;;;;;;13.78;99.63;102605.25;10357985;28;20064;-80
2023/05/02 09:55:38;;;;;;;0.35;0.30;;;;;;;13.08;98.45;102605.78;10365765;28;20483;-80
2023/05/02 10:00:42;;;;;;;0.75;0.20;;;;;;;12.50;94.95;102617.91;10357321;28;20073;-81
2023/05/02 10:05:45;;;;;;;0.13;0.10;;;;;;;13.58;87.11;102613.94;10356503;28;20567;-81
2023/05/02 10:10:53;;;;;;;1.02;0.30;;;;;;;13.35;83.75;102619.00;10372905;28;20516;-82
2023/05/02 10:16:03;;;;;;;0.10;0.10;;;;;;;14.55;82.69;102617.72;10356131;28;20423;-81
2023/05/02 10:21:10;;;;;;;0.68;0.25;;;;;;;13.17;92.09;102621.69;10373945;28;20080;-80
2023/05/02 10:26:14;;;;;;;0.15;0.15;;;;;;;14.99;90.28;102611.50;10373631;28;20075;-80
2023/05/02 10:31:17;;;;;;;0.00;0.00;;;;;;;15.58;79.32;102608.25;10372025;28;20072;-82
2023/05/02 10:36:21;;;;;;;3.53;1.77;;;;;;;13.53;92.06;102626.69;10374870;28;20042;-81
2023/05/02 10:41:26;;;;;;;0.10;0.10;;;;;;;14.00;88.59;102625.97;10393707;28;20050;-82
2023/05/02 10:46:33;;;;;;;0.93;0.47;;;;;;;14.79;80.79;102622.03;10380907;28;20065;-81
2023/05/02 10:51:36;;;;;;;0.10;0.10;;;;;;;15.33;79.89;102625.63;10381486;28;20037;-82
2023/05/02 10:57:07;;;;;;;0.10;0.10;;;;;;;18.12;73.73;102613.47;10375022;28;20136;-82
2023/05/02 11:02:27;;;;;;;;;;;;;;;14.90;81.39;102631.09;10378645;28;20058;-83
2023/05/02 11:07:30;;;;;;;1.20;0.30;;;;;;;15.20;85.90;102620.03;10396448;28;19921;-82
2023/05/02 11:12:46;;;;;;;0.65;0.28;;;;;;;15.67;76.41;102627.63;10401805;28;20609;-82
2023/05/02 11:18:00;;;;;;;0.10;0.10;;;;;;;14.86;87.64;102628.34;10393189;28;20073;-83
2023/05/02 11:23:14;;;;;;;0.03;0.03;;;;;;;13.72;89.17;102630.03;10393909;28;20080;-79
2023/05/02 11:28:35;;;;;;;0.10;0.10;;;;;;;17.51;77.38;102624.19;10375603;28;20053;-81
2023/05/02 11:33:37;;;;;;;0.05;0.05;;;;;;;15.54;83.45;102626.34;10390875;28;20575;-81
2023/05/02 11:38:39;;;;;;;1.52;0.20;;;;;;;14.12;97.34;102639.38;10390026;28;20106;-79
2023/05/02 11:43:40;;;;;;;0.40;0.20;;;;;;;15.33;89.83;102636.00;10387665;28;20113;-80
2023/05/02 11:48:42;;;;;;;0.00;0.00;;;;;;;13.69;89.59;102646.34;10393864;28;20521;-79
2023/05/02 11:53:43;;;;;;;0.20;0.20;;;;;;;14.37;88.70;102648.13;10382188;28;20054;-79
2023/05/02 11:58:56;;;;;;;0.88;0.60;;;;;;;15.94;77.64;102662.28;10398083;28;20101;-79
2023/05/02 12:04:02;;;;;;;1.75;0.47;;;;;;;13.66;83.39;102666.94;10406391;28;20073;-79
2023/05/02 12:09:09;;;;;;;0.28;0.13;;;;;;;14.98;83.61;102659.03;10358813;28;20096;-79
2023/05/02 12:14:11;;;;;;;0.60;0.20;;;;;;;14.90;86.04;102667.44;10399607;28;20575;-79
2023/05/02 12:19:13;;;;;;;0.10;0.10;;;;;;;16.09;79.88;102664.47;10408367;28;20045;-79
2023/05/02 12:24:14;;;;;;;0.00;0.00;;;;;;;15.05;80.02;102677.47;10404666;28;20057;-80
2023/05/02 12:29:16;;;;;;;2.75;0.20;;;;;;;14.88;75.55;102669.06;10406297;28;20515;-79
2023/05/02 12:34:37;;;;;;;2.30;0.73;;;;;;;15.62;76.88;102669.88;10391185;28;20132;-79
2023/05/02 12:39:41;;;;;;;0.25;0.10;;;;;;;15.55;82.18;102672.25;10399636;28;20156;-79
2023/05/02 12:44:45;;;;;;;0.73;0.25;;;;;;;15.40;77.52;102674.34;10375826;28;20046;-80
2023/05/02 12:49:55;;;;;;;0.20;0.10;;;;;;;16.48;74.55;102672.63;10375783;28;20092;-79
2023/05/02 12:55:14;;;;;;;0.13;0.10;;;;;;;16.12;75.90;102688.84;10399763;28;20132;-80
2023/05/02 13:00:17;;;;;;;0.13;0.13;;;;;;;16.00;78.82;102693.66;10390110;28;20695;-79
2023/05/02 13:05:19;;;;;;;0.47;0.28;;;;;;;16.94;67.46;102690.44;10411699;28;20046;-79
2023/05/02 13:10:23;;;;;;;0.15;0.10;;;;;;;15.93;80.58;102686.50;10401080;28;20137;-80
2023/05/02 13:15:25;;;;;;;0.28;0.20;;;;;;;14.59;82.78;102697.38;10406647;28;20065;-79
2023/05/02 13:20:26;;;;;;;0.52;0.47;;;;;;;14.13;82.02;102695.59;10384195;28;20052;-80
2023/05/02 13:25:28;;;;;;;0.57;0.52;;;;;;;14.65;83.74;102701.94;10367047;28;20118;-79
2023/05/02 13:30:29;;;;;;;0.43;0.35;;;;;;;15.88;83.62;102698.47;10386010;28;20128;-79
2023/05/02 13:35:31;;;;;;;0.20;0.20;;;;;;;14.11;86.47;102707.63;10378977;28;20069;-79
2023/05/02 13:40:35;;;;;;;0.15;0.08;;;;;;;15.09;86.17;102708.75;10401650;28;20119;-79
2023/05/02 13:45:37;;;;;;;0.25;0.25;;;;;;;13.76;87.65;102717.41;10383574;28;20064;-79
2023/05/02 13:50:38;;;;;;;0.68;0.45;;;;;;;14.71;89.30;102714.25;10373244;28;20105;-79
2023/05/02 13:55:40;;;;;;;0.82;0.25;;;;;;;14.31;93.04;102725.66;10379120;28;20070;-79
2023/05/02 14:00:41;;;;;;;0.22;0.20;;;;;;;14.34;85.97;102721.50;10355265;28;20114;-79
2023/05/02 14:05:42;;;;;;;0.00;0.00;;;;;;;14.42;83.08;102729.56;10404421;28;20083;-79
2023/05/02 14:10:44;;;;;;;0.45;0.20;;;;;;;13.59;82.77;102712.38;10387238;28;20046;-79
2023/05/02 14:15:45;;;;;;;0.20;0.00;;;;;;;15.19;91.66;102718.63;10394968;28;20049;-79
2023/05/02 14:20:47;;;;;;;0.43;0.35;;;;;;;15.05;87.07;102713.81;10382322;28;20408;-79
2023/05/02 14:25:48;;;;;;;0.17;0.17;;;;;;;14.59;83.05;102712.09;10372134;28;20508;-78
2023/05/02 14:30:50;;;;;;;0.03;0.03;;;;;;;14.83;84.64;102719.03;10365351;28;20076;-79
2023/05/02 14:35:52;;;;;;;0.10;0.10;;;;;;;15.36;78.71;102708.84;10398888;28;20467;-80
2023/05/02 14:40:53;;;;;;;0.20;0.17;;;;;;;14.87;79.59;102714.00;10379370;28;20108;-80
2023/05/02 14:45:56;;;;;;;0.85;0.40;;;;;;;14.67;83.37;102725.34;10373601;28;20129;-80
2023/05/02 14:50:59;;;;;;;0.00;0.00;;;;;;;14.36;80.92;102718.94;10395686;28;20049;-80
2023/05/02 14:56:01;;;;;;;0.38;0.20;;;;;;;15.21;79.72;102715.25;10397904;28;20356;-78
2023/05/02 15:01:02;;;;;;;0.30;0.30;;;;;;;15.49;75.66;102708.44;10397667;28;20145;-79
2023/05/02 15:06:04;;;;;;;0.10;0.10;;;;;;;14.91;80.33;102721.09;10381750;28;20040;-79
2023/05/02 15:11:05;;;;;;;0.22;0.10;;;;;;;15.30;77.50;102719.03;10386903;28;20132;-79
2023/05/02 15:16:09;;;;;;;1.27;0.45;;;;;;;15.15;75.44;102727.13;10366462;28;20584;-80
2023/05/02 15:21:11;;;;;;;3.35;2.17;;;;;;;14.85;79.82;102718.28;10375585;28;20038;-80
2023/05/02 15:26:12;;;;;;;0.32;0.17;;;;;;;16.92;74.58;102699.88;10351680;28;20445;-81
2023/05/02 15:31:14;;;;;;;0.63;0.50;;;;;;;14.40;80.06;102713.06;10332878;28;20536;-81
2023/05/02 15:36:16;;;;;;;0.30;0.30;;;;;;;14.08;84.09;102723.03;10371448;28;20595;-81
2023/05/02 15:41:18;;;;;;;0.40;0.22;;;;;;;15.04;77.71;102718.94;10395023;28;20587;-81
2023/05/02 15:46:19;;;;;;;0.10;0.10;;;;;;;15.23;79.14;102716.19;10324077;28;20129;-78
2023/05/02 15:51:21;;;;;;;0.10;0.10;;;;;;;15.11;75.68;102723.53;10373317;28;20056;-81
2023/05/02 15:56:23;;;;;;;0.00;0.00;;;;;;;14.50;82.35;102728.16;10377005;28;20567;-81
2023/05/02 16:01:24;;;;;;;0.00;0.00;;;;;;;14.17;76.58;102726.00;10382668;28;20133;-81
2023/05/02 16:06:26;;;;;;;0.00;0.00;;;;;;;15.84;75.71;102708.75;10385418;28;20538;-81
2023/05/02 16:11:28;;;;;;;0.40;0.40;;;;;;;14.23;79.31;102718.47;10384063;28;20436;-81
2023/05/02 16:16:29;;;;;;;0.20;0.20;;;;;;;15.43;78.62;102716.00;10390430;28;20084;-81
2023/05/02 16:21:31;;;;;;;0.57;0.13;;;;;;;14.82;79.95;102725.94;10392598;28;20497;-80
2023/05/02 16:26:33;;;;;;;0.20;0.20;;;;;;;15.17;76.04;102722.88;10400320;28;20129;-81
2023/05/02 16:31:34;;;;;;;0.25;0.22;;;;;;;14.91;77.73;102725.41;10396532;28;20133;-80
2023/05/02 16:36:36;;;;;;;0.00;0.00;;;;;;;14.80;79.78;102742.28;10379232;28;20046;-81
2023/05/02 16:41:37;;;;;;;0.25;0.10;;;;;;;15.39;76.48;102729.69;10379007;28;20116;-81
2023/05/02 16:46:40;;;;;;;0.38;0.10;;;;;;;15.18;74.43;102738.50;10389426;28;20050;-81
2023/05/02 16:51:41;;;;;;;0.00;0.00;;;;;;;14.77;78.22;102742.16;10381486;28;20084;-82
2023/05/02 16:56:43;;;;;;;0.22;0.22;;;;;;;14.80;79.39;102742.28;10384156;28;20120;-81
2023/05/02 17:01:44;;;;;;;0.10;0.10;;;;;;;14.72;75.60;102744.56;10371707;28;20053;-82
2023/05/02 17:06:46;;;;;;;2.00;0.55;;;;;;;14.13;78.60;102729.28;10384756;28;20048;-82
2023/05/02 17:11:49;;;;;;;0.05;0.05;;;;;;;14.18;79.32;102738.16;10390810;28;20544;-82
2023/05/02 17:16:50;;;;;;;0.00;0.00;;;;;;;14.11;79.09;102738.72;10378117;28;20547;-81
2023/05/02 17:21:53;;;;;;;0.00;0.00;;;;;;;13.88;83.78;102741.25;10373678;28;20096;-81
2023/05/02 17:26:54;;;;;;;0.00;0.00;;;;;;;14.12;82.34;102740.47;10369798;28;20088;-81
2023/05/02 17:31:58;;;;;;;0.20;0.10;;;;;;;13.81;84.43;102744.41;10395775;28;20132;-81
2023/05/02 17:37:00;;;;;;;0.10;0.10;;;;;;;13.80;84.19;102747.81;10375675;28;20455;-81
2023/05/02 17:42:01;;;;;;;28.65;0.85;;;;;;;13.42;86.05;102754.81;10378771;28;20084;-81
2023/05/02 17:47:03;;;;;;;0.17;0.10;;;;;;;13.56;84.74;102769.25;10381450;28;20045;-82
2023/05/02 17:52:05;;;;;;;0.00;0.00;;;;;;;13.27;88.01;102774.00;10401444;28;20060;-81
2023/05/02 17:57:07;;;;;;;0.43;0.30;;;;;;;13.25;88.09;102773.03;10385570;28;20583;-81
2023/05/02 18:02:08;;;;;;;1.75;1.27;;;;;;;13.15;89.13;102776.91;10407784;28;20041;-82
2023/05/02 18:07:10;;;;;;;0.00;0.00;;;;;;;13.16;87.68;102777.78;10359069;28;20052;-81
2023/05/02 18:12:12;;;;;;;0.20;0.03;;;;;;;12.99;87.65;102784.78;10403734;28;20061;-81
2023/05/02 18:17:13;;;;;;;0.85;0.43;;;;;;;12.46;91.41;102786.63;10401886;28;20048;-81
2023/05/02 18:22:17;;;;;;;0.15;0.08;;;;;;;12.15;95.32;102796.34;10373798;28;20065;-81
2023/05/02 18:27:20;;;;;;;0.40;0.10;;;;;;;12.13;96.85;102797.06;10378382;28;20056;-81
2023/05/02 18:32:21;;;;;;;0.20;0.20;;;;;;;11.78;98.57;102809.94;10372151;28;20417;-81
2023/05/02 18:37:29;;;;;;;3.30;0.35;;;;;;;11.89;98.50;102813.06;10378495;28;20085;-83
2023/05/02 18:42:31;;;;;;;0.00;0.00;;;;;;;11.92;100.00;102818.41;10372417;28;20927;-80
2023/05/02 18:47:33;;;;;;;0.08;0.08;;;;;;;11.67;100.00;102817.13;10366856;28;20124;-80
2023/05/02 18:52:35;;;;;;;0.43;0.25;;;;;;;11.60;100.00;102820.19;10387254;28;20068;-79
2023/05/02 18:57:36;;;;;;;0.00;0.00;;;;;;;11.42;100.00;102813.28;10376602;28;20137;-80
2023/05/02 19:02:38;;;;;;;0.00;0.00;;;;;;;11.37;100.00;102819.00;10368597;28;20034;-80
2023/05/02 19:07:39;;;;;;;0.00;0.00;;;;;;;11.41;100.00;102819.25;10378743;28;20124;-80
2023/05/02 19:12:41;;;;;;;0.00;0.00;;;;;;;11.49;100.00;102822.22;10403262;28;20046;-80
2023/05/02 19:17:44;;;;;;;0.15;0.05;;;;;;;11.52;100.00;102816.31;10382257;28;20077;-80
2023/05/02 19:22:46;;;;;;;0.45;0.20;;;;;;;11.53;100.00;102825.84;10384577;28;20068;-80
2023/05/02 19:27:48;;;;;;;0.60;0.45;;;;;;;11.67;100.00;102835.19;10399748;28;20103;-80
2023/05/02 19:32:50;;;;;;;0.10;0.10;;;;;;;11.13;100.00;102849.53;10396126;28;20045;-81
2023/05/02 19:37:51;;;;;;;0.00;0.00;;;;;;;11.04;100.00;102852.47;10402483;28;20060;-80
2023/05/02 19:42:53;;;;;;;0.20;0.17;;;;;;;10.97;100.00;102851.25;10380848;28;20124;-80
2023/05/02 19:47:55;;;;;;;0.47;0.38;;;;;;;10.92;100.00;102862.97;10362901;28;20084;-81
2023/05/02 19:52:56;;;;;;;0.10;0.10;;;;;;;10.77;100.00;102853.59;10399942;28;20049;-80
2023/05/02 19:58:03;;;;;;;0.70;0.40;;;;;;;10.48;100.00;102865.69;10402195;28;20037;-80
2023/05/02 20:03:04;;;;;;;0.00;0.00;;;;;;;10.51;100.00;102871.84;10390662;28;20057;-80
2023/05/02 20:08:06;;;;;;;0.00;0.00;;;;;;;10.44;100.00;102880.91;10385847;28;20050;-80
2023/05/02 20:13:08;;;;;;;0.30;0.30;;;;;;;10.47;100.00;102884.53;10400333;28;20420;-80
2023/05/02 20:18:10;;;;;;;0.10;0.10;;;;;;;10.21;100.00;102880.41;10402517;28;20072;-79
2023/05/02 20:23:12;;;;;;;0.20;0.20;;;;;;;10.04;100.00;102886.25;10397972;28;20603;-80
2023/05/02 20:28:13;;;;;;;0.20;0.05;;;;;;;10.27;100.00;102885.03;10403201;28;20069;-80
2023/05/02 20:33:15;;;;;;;0.00;0.00;;;;;;;9.88;100.00;102890.47;10373813;28;20076;-81
2023/05/02 20:38:19;;;;;;;0.05;0.00;;;;;;;9.70;100.00;102895.38;10365641;28;20054;-80
2023/05/02 20:43:21;;;;;;;0.10;0.10;;;;;;;9.72;100.00;102905.78;10390198;28;20053;-80
2023/05/02 20:48:23;;;;;;;0.10;0.10;;;;;;;9.45;100.00;102904.16;10366085;28;20038;-79
2023/05/02 20:53:25;;;;;;;0.75;0.55;;;;;;;9.48;100.00;102909.50;10374590;28;20060;-80
2023/05/02 20:58:26;;;;;;;0.00;0.00;;;;;;;9.65;100.00;102917.34;10379884;28;20120;-80
2023/05/02 21:03:27;;;;;;;0.00;0.00;;;;;;;9.53;100.00;102917.50;10394307;28;20077;-80
2023/05/02 21:08:29;;;;;;;0.45;0.35;;;;;;;9.15;100.00;102922.00;10377996;28;20046;-80
2023/05/02 21:13:31;;;;;;;0.08;0.08;;;;;;;9.78;100.00;102909.63;10391574;28;20085;-80
2023/05/02 21:18:32;;;;;;;0.35;0.35;;;;;;;9.28;100.00;102918.53;10379620;28;20125;-79
2023/05/02 21:23:34;;;;;;;0.32;0.30;;;;;;;9.36;100.00;102919.00;10368535;28;20463;-80
2023/05/02 21:28:37;;;;;;;0.10;0.10;;;;;;;9.07;100.00;102925.75;10399298;28;20737;-79
2023/05/02 21:33:40;;;;;;;0.05;0.05;;;;;;;9.04;100.00;102925.56;10372550;28;20038;-79
2023/05/02 21:38:42;;;;;;;0.10;0.10;;;;;;;8.99;100.00;102919.22;10375125;28;20061;-80
2023/05/02 21:43:43;;;;;;;0.10;0.10;;;;;;;9.04;100.00;102928.16;10376310;28;20037;-80
2023/05/02 21:48:45;;;;;;;0.10;0.10;;;;;;;8.64;100.00;102930.66;10375750;28;20045;-80
2023/05/02 21:53:47;;;;;;;0.20;0.10;;;;;;;8.57;100.00;102937.97;10391991;28;20045;-80
2023/05/02 21:58:50;;;;;;;1.88;0.98;;;;;;;8.55;100.00;102939.53;10394831;28;20037;-80
2023/05/02 22:03:51;;;;;;;0.25;0.20;;;;;;;8.72;100.00;102934.63;10395090;28;20069;-80
2023/05/02 22:08:53;;;;;;;0.10;0.10;;;;;;;8.52;100.00;102939.34;10360718;28;20041;-80
2023/05/02 22:13:54;;;;;;;0.00;0.00;;;;;;;8.78;100.00;102929.88;10373895;28;20046;-80
2023/05/02 22:18:56;;;;;;;0.00;0.00;;;;;;;8.95;100.00;102935.25;10369447;28;20164;-80
2023/05/02 22:23:58;;;;;;;0.00;0.00;;;;;;;8.94;100.00;102928.31;10392277;28;20095;-80
2023/05/02 22:28:59;;;;;;;0.20;0.20;;;;;;;8.63;100.00;102934.00;10378871;28;20041;-80
2023/05/02 22:34:01;;;;;;;0.28;0.28;;;;;;;8.24;100.00;102932.28;10379349;28;20055;-79
2023/05/02 22:39:04;;;;;;;0.10;0.10;;;;;;;7.92;100.00;102937.78;10403000;28;20048;-80
2023/05/02 22:44:07;;;;;;;0.10;0.10;;;;;;;8.15;100.00;102926.53;10388655;28;20080;-80
2023/05/02 22:49:09;;;;;;;0.63;0.43;;;;;;;8.28;100.00;102929.94;10382879;28;20548;-80
2023/05/02 22:54:10;;;;;;;0.00;0.00;;;;;;;8.51;100.00;102917.00;10407555;28;20058;-80
2023/05/02 22:59:12;;;;;;;0.20;0.20;;;;;;;8.11;100.00;102932.22;10386079;28;20045;-81
2023/05/02 23:04:13;;;;;;;0.00;0.00;;;;;;;7.81;100.00;102928.44;10394268;28;20577;-80
2023/05/02 23:09:15;;;;;;;0.00;0.00;;;;;;;7.82;100.00;102925.97;10397761;28;20058;-80